Time;durP1;ratioP1;P1;durP2;ratioP2;P2;SDS_P1;SDS_P2;PMS_P1;PMS_P2;Temp;Humidity;BMP_temperature;BMP_pressure;BME280_temperature;BME280_humidity;BME280_pressure;Samples;Min_cycle;Max_cycle;Signal;HPM_P1;HPM_P2
2022/01/16 00:04:10;;;;;;;24.47;19.67;;;4.40;74.10;;;;;;5107966;28;20434;-45
2022/01/16 00:06:38;;;;;;;23.63;18.47;;;4.30;74.20;;;;;;5114899;28;20195;-45
2022/01/16 00:09:04;;;;;;;26.30;18.70;;;4.20;74.50;;;;;;5115241;28;20191;-45
2022/01/16 00:11:30;;;;;;;26.30;19.03;;;4.10;74.70;;;;;;5097082;28;20473;-45
2022/01/16 00:13:56;;;;;;;24.00;17.97;;;4.00;74.80;;;;;;5115047;28;20876;-44
2022/01/16 00:16:23;;;;;;;22.10;16.73;;;4.00;75.00;;;;;;5097580;28;20661;-45
2022/01/16 00:18:52;;;;;;;25.27;18.00;;;3.90;75.10;;;;;;5071118;28;20192;-45
2022/01/16 00:21:23;;;;;;;23.07;17.67;;;3.80;75.20;;;;;;5117166;28;20793;-44
2022/01/16 00:23:50;;;;;;;24.50;17.77;;;3.70;75.20;;;;;;5097796;28;20685;-45
2022/01/16 00:26:16;;;;;;;25.17;18.30;;;3.70;75.40;;;;;;5116251;28;20434;-45
2022/01/16 00:28:42;;;;;;;24.90;17.20;;;3.60;75.30;;;;;;5115888;28;20730;-45
2022/01/16 00:31:08;;;;;;;25.60;18.37;;;3.60;75.50;;;;;;5117206;28;20449;-45
2022/01/16 00:33:39;;;;;;;24.93;19.17;;;3.50;75.60;;;;;;5118826;28;20446;-45
2022/01/16 00:36:11;;;;;;;26.90;18.80;;;3.40;75.70;;;;;;5084289;28;20426;-46
2022/01/16 00:38:42;;;;;;;29.00;18.97;;;3.40;75.90;;;;;;5100853;28;20529;-45
2022/01/16 00:41:08;;;;;;;27.60;19.10;;;3.30;75.90;;;;;;5118154;28;20398;-45
2022/01/16 00:43:34;;;;;;;25.30;17.90;;;3.30;76.10;;;;;;5118527;28;20877;-45
2022/01/16 00:45:59;;;;;;;25.93;19.10;;;3.20;76.10;;;;;;5118780;28;20173;-45
2022/01/16 00:48:28;;;;;;;23.50;17.83;;;3.20;76.30;;;;;;5118280;28;20184;-44
2022/01/16 00:50:53;;;;;;;26.17;19.37;;;3.10;76.40;;;;;;5118476;28;20615;-43
2022/01/16 00:53:19;;;;;;;25.57;17.83;;;3.10;76.60;;;;;;5117799;28;20959;-45
2022/01/16 00:55:45;;;;;;;24.23;18.57;;;3.10;76.70;;;;;;5116312;28;20184;-44
2022/01/16 00:58:11;;;;;;;27.00;19.37;;;3.00;76.80;;;;;;5117914;28;20216;-44
2022/01/16 01:00:37;;;;;;;31.20;20.50;;;3.00;77.00;;;;;;5118247;28;20212;-43
2022/01/16 01:03:02;;;;;;;34.03;22.20;;;3.00;77.20;;;;;;5117867;28;20871;-46
2022/01/16 01:05:28;;;;;;;32.70;21.30;;;2.90;77.40;;;;;;5097335;28;20458;-45
2022/01/16 01:07:57;;;;;;;34.20;21.93;;;2.90;77.80;;;;;;5117740;28;20963;-44
2022/01/16 01:10:31;;;;;;;34.10;22.30;;;2.90;78.10;;;;;;5117696;28;20457;-44
2022/01/16 01:13:08;;;;;;;32.63;21.40;;;2.90;78.40;;;;;;5099643;28;20903;-45
2022/01/16 01:15:42;;;;;;;31.47;22.20;;;2.90;78.50;;;;;;5116032;28;20414;-43
2022/01/16 01:18:09;;;;;;;36.70;23.60;;;2.90;78.80;;;;;;5100963;28;20477;-44
2022/01/16 01:20:35;;;;;;;34.27;24.13;;;2.90;79.20;;;;;;5118049;28;20497;-45
2022/01/16 01:23:00;;;;;;;33.90;23.10;;;2.90;79.60;;;;;;5100201;28;20524;-43
2022/01/16 01:25:26;;;;;;;33.30;23.33;;;2.90;79.90;;;;;;5117704;28;20996;-44
2022/01/16 01:27:52;;;;;;;31.30;21.00;;;2.90;80.20;;;;;;5117880;28;20806;-43
2022/01/16 01:30:20;;;;;;;32.60;22.60;;;2.90;80.40;;;;;;5117955;28;20217;-44
2022/01/16 01:32:47;;;;;;;31.80;20.80;;;2.90;80.80;;;;;;5114833;28;20192;-43
2022/01/16 01:35:15;;;;;;;31.97;21.97;;;2.90;81.10;;;;;;5116081;28;20472;-44
2022/01/16 01:37:41;;;;;;;31.43;21.70;;;2.90;81.50;;;;;;5114777;28;20444;-44
2022/01/16 01:40:10;;;;;;;29.10;20.40;;;2.90;82.10;;;;;;5117544;28;20812;-44
2022/01/16 01:42:44;;;;;;;27.40;19.50;;;2.90;82.70;;;;;;5116321;28;20434;-44
2022/01/16 01:53:23;;;;;;;28.67;19.10;;;2.90;84.30;;;;;;5114283;28;20870;-44
2022/01/16 01:55:50;;;;;;;26.17;18.77;;;2.90;84.70;;;;;;5117110;28;20390;-45
2022/01/16 01:58:16;;;;;;;29.57;19.13;;;2.90;84.90;;;;;;5117025;28;20192;-49
2022/01/16 02:00:42;;;;;;;29.97;20.37;;;2.90;85.30;;;;;;5119933;28;20424;-45
2022/01/16 02:03:16;;;;;;;27.50;19.00;;;2.90;85.30;;;;;;5121487;28;20188;-44
2022/01/16 02:05:44;;;;;;;29.07;19.30;;;2.90;85.50;;;;;;5118447;28;20700;-44
2022/01/16 02:08:10;;;;;;;24.63;18.47;;;2.90;85.60;;;;;;5121265;28;20526;-43
2022/01/16 02:10:38;;;;;;;23.27;16.63;;;3.00;85.80;;;;;;5121407;28;20497;-44
2022/01/16 02:13:06;;;;;;;25.50;17.90;;;3.00;85.70;;;;;;5103814;28;20484;-44
2022/01/16 02:27:54;;;;;;;19.53;16.83;;;3.00;85.50;;;;;;5118425;28;20438;-44
2022/01/16 02:34:35;;;;;;;23.13;17.07;;;2.90;86.40;;;;;;5100805;28;20897;-45
2022/01/16 02:37:06;;;;;;;24.20;18.50;;;2.80;86.30;;;;;;5100856;28;20741;-44
2022/01/16 02:39:35;;;;;;;23.90;18.93;;;2.80;86.40;;;;;;5100885;28;20875;-43
2022/01/16 02:42:03;;;;;;;23.20;17.67;;;2.80;86.60;;;;;;5099754;28;20422;-43
2022/01/16 02:46:58;;;;;;;21.87;18.50;;;2.80;87.00;;;;;;5100943;28;20518;-45
2022/01/16 02:49:26;;;;;;;23.00;16.73;;;2.80;87.20;;;;;;5101262;28;20321;-44
2022/01/16 02:52:01;;;;;;;22.30;17.93;;;2.70;87.20;;;;;;5100556;28;20458;-42
2022/01/16 02:55:21;;;;;;;23.37;16.50;;;2.80;87.20;;;;;;5100420;28;20441;-44
2022/01/16 02:57:48;;;;;;;24.93;19.00;;;2.80;87.10;;;;;;5103939;28;20829;-44
2022/01/16 03:00:14;;;;;;;22.33;17.47;;;2.80;86.90;;;;;;5116737;28;20418;-44
2022/01/16 03:02:40;;;;;;;21.63;19.30;;;2.80;86.90;;;;;;5119793;28;20441;-43
2022/01/16 03:05:06;;;;;;;22.17;17.93;;;2.80;86.90;;;;;;5119598;28;20484;-44
2022/01/16 03:07:32;;;;;;;23.60;18.00;;;2.80;87.00;;;;;;5119167;28;20194;-44
2022/01/16 03:10:38;;;;;;;18.87;15.50;;;2.70;86.90;;;;;;5119542;28;20828;-44
2022/01/16 03:13:06;;;;;;;23.90;18.20;;;2.70;86.80;;;;;;5119071;28;20485;-44
2022/01/16 03:15:38;;;;;;;21.97;18.07;;;2.70;87.00;;;;;;5107199;28;20441;-44
2022/01/16 03:23:18;;;;;;;18.83;15.67;;;2.60;86.50;;;;;;5119567;28;20524;-44
2022/01/16 03:25:44;;;;;;;23.60;18.10;;;2.60;86.30;;;;;;5120149;28;20791;-44
2022/01/16 03:28:10;;;;;;;21.30;17.93;;;2.60;86.40;;;;;;5119426;28;20477;-44
2022/01/16 03:30:36;;;;;;;22.77;18.47;;;2.50;86.40;;;;;;5120309;28;20758;-44
2022/01/16 03:33:02;;;;;;;24.53;18.27;;;2.50;86.40;;;;;;5120162;28;20270;-44
2022/01/16 03:35:27;;;;;;;21.67;17.90;;;2.40;86.30;;;;;;5119119;28;20429;-43
2022/01/16 03:37:53;;;;;;;22.90;18.40;;;2.40;86.20;;;;;;5118054;28;20430;-44
2022/01/16 03:40:21;;;;;;;22.97;17.70;;;2.30;86.10;;;;;;5118798;28;20173;-44
2022/01/16 03:42:48;;;;;;;18.20;15.70;;;2.20;86.10;;;;;;5118548;28;20192;-44
2022/01/16 03:45:14;;;;;;;20.10;16.40;;;2.20;86.20;;;;;;5118838;28;20469;-44
2022/01/16 03:47:43;;;;;;;21.70;16.47;;;2.20;86.30;;;;;;5118814;28;20486;-45
2022/01/16 03:50:10;;;;;;;19.40;16.20;;;2.10;86.20;;;;;;5119553;28;20434;-44
2022/01/16 03:52:36;;;;;;;21.97;18.07;;;2.10;86.20;;;;;;5119742;28;20945;-44
2022/01/16 03:55:03;;;;;;;21.20;17.33;;;2.20;86.20;;;;;;5118584;28;20535;-44
2022/01/16 03:57:30;;;;;;;20.77;17.30;;;2.20;86.20;;;;;;5118889;28;20406;-43
2022/01/16 03:59:56;;;;;;;19.97;16.70;;;2.20;85.90;;;;;;5118757;28;20445;-43
2022/01/16 04:02:22;;;;;;;22.23;18.27;;;2.20;85.80;;;;;;5118698;28;20512;-44
2022/01/16 04:04:48;;;;;;;23.47;17.60;;;2.20;85.60;;;;;;5118665;28;20463;-44
2022/01/16 04:07:20;;;;;;;22.10;17.83;;;2.20;85.40;;;;;;5118551;28;20430;-44
2022/01/16 04:09:45;;;;;;;25.10;18.87;;;2.20;85.30;;;;;;5119411;28;20536;-44
2022/01/16 04:12:11;;;;;;;21.47;17.00;;;2.10;85.10;;;;;;5119286;28;20564;-44
2022/01/16 04:17:15;;;;;;;21.93;17.50;;;2.10;84.90;;;;;;5102578;28;20171;-44
2022/01/16 04:19:42;;;;;;;20.10;16.33;;;2.00;84.80;;;;;;5119569;28;20406;-44
2022/01/16 04:22:10;;;;;;;19.33;15.93;;;2.00;85.00;;;;;;5118632;28;20430;-44
2022/01/16 04:24:36;;;;;;;20.60;17.13;;;2.00;85.10;;;;;;5119415;28;20410;-44
2022/01/16 04:27:02;;;;;;;20.80;16.40;;;1.90;85.00;;;;;;5119215;28;20493;-44
2022/01/16 04:29:28;;;;;;;22.10;16.93;;;1.90;85.00;;;;;;5119422;28;20414;-44
2022/01/16 04:31:54;;;;;;;24.23;17.30;;;1.90;85.70;;;;;;5118862;28;20472;-44
2022/01/16 04:34:19;;;;;;;21.53;17.50;;;1.90;85.10;;;;;;5118910;28;20203;-43
2022/01/16 04:36:45;;;;;;;21.27;16.53;;;1.80;85.10;;;;;;5118919;28;20191;-44
2022/01/16 04:39:17;;;;;;;22.07;18.47;;;1.80;85.30;;;;;;5119038;28;20263;-44
2022/01/16 04:44:27;;;;;;;22.47;17.90;;;1.70;85.60;;;;;;5118491;28;20776;-44
2022/01/16 04:46:53;;;;;;;21.67;17.60;;;1.70;85.70;;;;;;5083671;28;20536;-44
2022/01/16 04:49:19;;;;;;;22.03;18.13;;;1.70;85.70;;;;;;5118639;28;20410;-44
2022/01/16 04:51:45;;;;;;;18.27;15.90;;;1.70;85.80;;;;;;5100456;28;20794;-44
2022/01/16 04:54:11;;;;;;;22.00;17.57;;;1.70;85.80;;;;;;5118279;28;20509;-44
2022/01/16 04:56:36;;;;;;;22.73;16.60;;;1.70;85.70;;;;;;5118668;28;20317;-44
2022/01/16 04:59:02;;;;;;;25.10;18.50;;;1.70;85.60;;;;;;5118511;28;20164;-44
2022/01/16 05:01:28;;;;;;;21.40;17.67;;;1.70;85.50;;;;;;5118678;28;20239;-44
2022/01/16 05:03:54;;;;;;;24.20;17.37;;;1.70;85.40;;;;;;5117452;28;20486;-48
2022/01/16 05:06:19;;;;;;;22.63;17.97;;;1.70;85.40;;;;;;5116796;28;20562;-47
2022/01/16 05:08:45;;;;;;;19.30;16.43;;;1.70;85.40;;;;;;5110540;28;20199;-48
2022/01/16 05:11:13;;;;;;;24.90;17.10;;;1.70;85.30;;;;;;5102739;28;20647;-47
2022/01/16 05:18:51;;;;;;;21.80;17.63;;;1.80;85.10;;;;;;5096344;28;20313;-48
2022/01/16 05:21:17;;;;;;;24.30;18.70;;;1.80;85.00;;;;;;5102452;28;20428;-47
2022/01/16 05:23:42;;;;;;;24.20;19.10;;;1.80;85.00;;;;;;5117857;28;20398;-47
2022/01/16 05:26:09;;;;;;;23.33;18.30;;;1.80;85.00;;;;;;5118436;28;20562;-47
2022/01/16 05:28:35;;;;;;;23.80;17.33;;;1.90;85.10;;;;;;5117881;28;20216;-47
2022/01/16 05:31:01;;;;;;;22.23;18.23;;;1.80;85.00;;;;;;5099993;28;20452;-47
2022/01/16 05:33:26;;;;;;;22.03;18.17;;;1.90;85.20;;;;;;5119122;28;20875;-47
2022/01/16 05:35:52;;;;;;;24.37;19.73;;;1.90;85.20;;;;;;5124863;28;20180;-48
2022/01/16 05:38:18;;;;;;;28.03;21.43;;;1.90;85.10;;;;;;5125062;28;20175;-47
2022/01/16 05:40:44;;;;;;;25.20;20.60;;;1.90;85.00;;;;;;5124916;28;20177;-47
2022/01/16 05:43:11;;;;;;;23.27;19.57;;;1.80;85.00;;;;;;5106709;28;20254;-47
2022/01/16 05:45:37;;;;;;;27.30;21.00;;;1.80;85.20;;;;;;5124755;28;21041;-47
2022/01/16 05:48:06;;;;;;;24.77;19.83;;;1.80;85.30;;;;;;5124801;28;20410;-47
2022/01/16 05:50:32;;;;;;;26.67;21.93;;;1.80;85.60;;;;;;5124930;28;20528;-47
2022/01/16 05:52:58;;;;;;;27.00;21.60;;;1.80;85.40;;;;;;5124880;28;20457;-47
2022/01/16 05:55:27;;;;;;;27.50;20.70;;;1.80;85.40;;;;;;5124848;28;20604;-47
2022/01/16 05:57:53;;;;;;;28.87;22.93;;;1.70;85.40;;;;;;5124370;28;20406;-47
2022/01/16 06:00:18;;;;;;;26.93;21.50;;;1.70;85.60;;;;;;5124990;28;20413;-47
2022/01/16 06:02:44;;;;;;;26.00;21.10;;;1.70;85.80;;;;;;5121800;28;20422;-47
2022/01/16 06:05:11;;;;;;;25.77;20.37;;;1.70;85.80;;;;;;5113276;28;20465;-48
2022/01/16 06:07:40;;;;;;;24.87;20.90;;;1.60;85.70;;;;;;5104334;28;20180;-48
2022/01/16 06:10:06;;;;;;;26.60;21.27;;;1.60;85.80;;;;;;5104190;28;20476;-47
2022/01/16 06:12:32;;;;;;;25.20;21.90;;;1.60;85.80;;;;;;5104411;28;20470;-47
2022/01/16 06:15:00;;;;;;;26.67;20.03;;;1.60;85.80;;;;;;5104031;28;20407;-47
2022/01/16 06:17:25;;;;;;;23.60;20.10;;;1.60;85.70;;;;;;5104183;28;20512;-47
2022/01/16 06:19:51;;;;;;;27.40;20.60;;;1.60;85.60;;;;;;5103708;28;20406;-47
2022/01/16 06:22:18;;;;;;;24.47;20.23;;;1.50;85.40;;;;;;5104397;28;20185;-47
2022/01/16 06:24:44;;;;;;;26.30;21.63;;;1.50;85.40;;;;;;5114646;28;20440;-48
2022/01/16 06:27:12;;;;;;;25.63;22.37;;;1.50;85.40;;;;;;5102410;28;20612;-47
2022/01/16 06:29:38;;;;;;;26.17;21.13;;;1.50;85.40;;;;;;5103750;28;20547;-47
2022/01/16 06:32:04;;;;;;;26.30;21.43;;;1.50;85.40;;;;;;5112824;28;20639;-47
2022/01/16 06:34:30;;;;;;;26.10;20.23;;;1.40;85.40;;;;;;5118966;28;20184;-47
2022/01/16 06:36:58;;;;;;;27.83;21.93;;;1.40;85.40;;;;;;5122455;28;20422;-47
2022/01/16 06:39:24;;;;;;;24.17;20.67;;;1.40;85.40;;;;;;5123027;28;20416;-48
2022/01/16 06:41:49;;;;;;;27.17;21.03;;;1.30;85.40;;;;;;5122627;28;20720;-48
2022/01/16 06:44:15;;;;;;;28.07;21.43;;;1.30;85.50;;;;;;5123128;28;20417;-48
2022/01/16 06:46:44;;;;;;;27.63;20.50;;;1.30;85.60;;;;;;5119850;28;20199;-47
2022/01/16 06:49:10;;;;;;;25.60;20.97;;;1.20;85.40;;;;;;5121246;28;20418;-48
2022/01/16 06:51:37;;;;;;;29.13;21.70;;;1.20;85.40;;;;;;5120883;28;20469;-47
2022/01/16 06:54:03;;;;;;;30.03;21.70;;;1.20;85.40;;;;;;5120558;28;20851;-47
2022/01/16 06:56:29;;;;;;;26.83;21.20;;;1.10;85.30;;;;;;5119753;28;20454;-48
2022/01/16 06:58:56;;;;;;;26.00;20.50;;;1.10;85.20;;;;;;5120059;28;20410;-47
2022/01/16 07:01:21;;;;;;;28.17;22.80;;;1.10;85.10;;;;;;5113110;28;20446;-47
2022/01/16 07:03:48;;;;;;;25.10;20.00;;;1.10;85.10;;;;;;5110592;28;20440;-47
2022/01/16 07:06:17;;;;;;;29.50;22.00;;;1.00;84.80;;;;;;5111112;28;20271;-47
2022/01/16 07:08:42;;;;;;;28.20;22.60;;;1.00;84.70;;;;;;5099108;28;20403;-47
2022/01/16 07:11:08;;;;;;;28.20;21.23;;;1.00;84.70;;;;;;5099632;28;20449;-47
2022/01/16 07:13:35;;;;;;;29.60;22.93;;;1.00;84.80;;;;;;5099320;28;20451;-47
2022/01/16 07:16:00;;;;;;;24.17;19.93;;;0.90;84.70;;;;;;5098319;28;20435;-47
2022/01/16 07:18:27;;;;;;;26.77;21.07;;;0.90;84.70;;;;;;5112012;28;20434;-47
2022/01/16 07:20:53;;;;;;;26.40;21.40;;;0.90;84.80;;;;;;5119669;28;20196;-47
2022/01/16 07:23:24;;;;;;;26.83;21.17;;;0.90;84.80;;;;;;5101810;28;20410;-47
2022/01/16 07:25:50;;;;;;;24.93;20.33;;;0.90;84.60;;;;;;5119389;28;20212;-47
2022/01/16 07:28:16;;;;;;;28.97;21.67;;;0.90;84.50;;;;;;5119599;28;20494;-47
2022/01/16 07:30:42;;;;;;;26.37;21.70;;;1.00;84.40;;;;;;5120190;28;20725;-47
2022/01/16 07:33:08;;;;;;;22.40;18.90;;;0.90;84.20;;;;;;5119101;28;20616;-47
2022/01/16 07:35:35;;;;;;;23.53;19.30;;;1.00;84.20;;;;;;5116869;28;20429;-47
2022/01/16 07:38:01;;;;;;;25.80;19.37;;;1.00;84.00;;;;;;5116170;28;20406;-47
2022/01/16 07:40:27;;;;;;;21.57;18.17;;;1.00;84.00;;;;;;5108853;28;20682;-47
2022/01/16 07:42:53;;;;;;;25.23;19.10;;;1.10;84.10;;;;;;5101924;28;20449;-47
2022/01/16 07:45:19;;;;;;;23.50;18.80;;;1.20;84.10;;;;;;5096804;28;20415;-47
2022/01/16 07:47:45;;;;;;;22.77;18.73;;;1.30;83.90;;;;;;5096703;28;20716;-47
2022/01/16 07:50:13;;;;;;;17.50;15.63;;;1.50;83.70;;;;;;5097168;28;20418;-47
2022/01/16 07:52:41;;;;;;;21.40;17.63;;;1.70;83.50;;;;;;5097120;28;20204;-47
2022/01/16 07:55:10;;;;;;;20.63;16.70;;;1.90;83.20;;;;;;5097130;28;20407;-47
2022/01/16 07:57:35;;;;;;;20.23;16.47;;;2.20;82.90;;;;;;5101627;28;20540;-47
2022/01/16 08:00:02;;;;;;;19.07;15.67;;;2.40;82.50;;;;;;5101716;28;20501;-47
2022/01/16 08:02:28;;;;;;;20.57;16.70;;;2.70;82.00;;;;;;5096084;28;20181;-47
2022/01/16 08:04:54;;;;;;;20.33;16.03;;;3.00;81.50;;;;;;5095956;28;20417;-46
2022/01/16 08:07:19;;;;;;;18.30;15.47;;;3.30;80.90;;;;;;5096425;28;20192;-47
2022/01/16 08:09:45;;;;;;;18.17;15.73;;;3.60;80.20;;;;;;5096603;28;20177;-47
2022/01/16 08:12:12;;;;;;;20.13;17.90;;;4.00;79.50;;;;;;5097151;28;20201;-47
2022/01/16 08:14:38;;;;;;;19.90;16.13;;;4.30;78.80;;;;;;5117891;28;20406;-47
2022/01/16 08:17:03;;;;;;;22.90;17.57;;;4.70;78.00;;;;;;5116904;28;21121;-47
2022/01/16 08:19:30;;;;;;;20.70;17.13;;;5.10;77.30;;;;;;5109167;28;20711;-47
2022/01/16 08:21:56;;;;;;;20.30;17.40;;;5.40;76.40;;;;;;5080057;28;20963;-47
2022/01/16 08:24:23;;;;;;;20.10;16.97;;;5.80;75.30;;;;;;5116939;28;20429;-47
2022/01/16 08:26:49;;;;;;;21.90;18.73;;;6.10;74.10;;;;;;5108935;28;20931;-47
2022/01/16 08:29:15;;;;;;;20.43;17.47;;;6.50;72.90;;;;;;5103508;28;20434;-47
2022/01/16 08:31:41;;;;;;;19.70;17.30;;;6.80;71.70;;;;;;5115239;28;20503;-47
2022/01/16 08:34:07;;;;;;;20.10;17.50;;;7.20;70.20;;;;;;5098714;28;20206;-47
2022/01/16 08:36:34;;;;;;;20.30;18.30;;;7.60;69.00;;;;;;5104376;27;20440;-47
2022/01/16 08:39:00;;;;;;;19.90;17.90;;;8.00;67.70;;;;;;5108123;28;20524;-48
2022/01/16 08:41:26;;;;;;;20.30;18.13;;;8.50;66.40;;;;;;5104270;28;20431;-47
2022/01/16 08:43:52;;;;;;;18.90;16.90;;;9.20;64.80;;;;;;5104249;28;20456;-47
2022/01/16 08:46:21;;;;;;;21.47;17.87;;;9.80;61.70;;;;;;5104156;27;20172;-47
2022/01/16 08:48:48;;;;;;;20.20;18.10;;;10.50;58.90;;;;;;5107895;28;21063;-47
2022/01/16 08:51:13;;;;;;;20.50;18.27;;;11.40;57.40;;;;;;5101605;28;20423;-47
2022/01/16 08:53:39;;;;;;;19.17;17.27;;;12.30;55.50;;;;;;5084113;28;20461;-47
2022/01/16 08:56:05;;;;;;;18.47;16.53;;;13.20;53.00;;;;;;5094121;28;20211;-47
2022/01/16 08:58:31;;;;;;;20.20;18.10;;;13.90;50.60;;;;;;5095782;28;20447;-47
2022/01/16 09:00:57;;;;;;;20.17;18.07;;;14.60;48.30;;;;;;5084925;28;20441;-47
2022/01/16 09:03:23;;;;;;;18.00;16.20;;;15.20;46.10;;;;;;5099563;28;20520;-47
2022/01/16 09:05:50;;;;;;;18.60;16.70;;;15.80;44.60;;;;;;5106604;28;20405;-47
2022/01/16 09:08:16;;;;;;;19.20;17.37;;;16.00;42.80;;;;;;5113995;28;20248;-47
2022/01/16 09:10:42;;;;;;;18.80;16.90;;;15.90;42.40;;;;;;5107622;28;20508;-47
2022/01/16 09:13:12;;;;;;;20.00;18.10;;;15.70;42.00;;;;;;5112292;28;20489;-47
2022/01/16 09:15:41;;;;;;;19.10;17.20;;;16.00;41.90;;;;;;5107266;28;20475;-47
2022/01/16 09:18:08;;;;;;;19.87;18.00;;;16.80;41.50;;;;;;5111791;28;20463;-47
2022/01/16 09:20:35;;;;;;;18.20;16.60;;;17.50;40.00;;;;;;5114322;28;20417;-47
2022/01/16 09:23:01;;;;;;;18.57;16.77;;;17.70;39.00;;;;;;5110601;28;20602;-47
2022/01/16 09:25:27;;;;;;;18.63;16.90;;;17.90;38.50;;;;;;5106027;28;20528;-47
2022/01/16 09:27:53;;;;;;;20.10;18.10;;;18.60;38.80;;;;;;5110740;28;20232;-48
2022/01/16 09:30:20;;;;;;;21.30;19.10;;;19.40;37.70;;;;;;5124014;27;20428;-48
2022/01/16 09:32:46;;;;;;;19.60;17.60;;;20.30;36.60;;;;;;5113502;28;20487;-47
2022/01/16 09:35:12;;;;;;;21.53;19.43;;;21.00;35.80;;;;;;5116536;28;20408;-48
2022/01/16 09:37:38;;;;;;;9.83;8.93;;;21.30;34.40;;;;;;5113249;28;20483;-39
2022/01/16 09:40:07;;;;;;;9.60;8.70;;;21.40;40.20;;;;;;5121113;28;20886;-41
2022/01/16 09:42:33;;;;;;;9.57;8.57;;;21.70;43.70;;;;;;5115410;28;20462;-39
2022/01/16 09:44:59;;;;;;;9.33;8.50;;;21.40;43.50;;;;;;5116065;28;20450;-39
2022/01/16 09:47:25;;;;;;;10.40;9.40;;;20.80;44.40;;;;;;5115602;28;20448;-39
2022/01/16 09:49:53;;;;;;;10.40;9.40;;;20.10;45.20;;;;;;5114427;28;20177;-41
2022/01/16 09:52:19;;;;;;;10.40;9.43;;;19.50;45.90;;;;;;5097147;28;20207;-40
2022/01/16 09:54:46;;;;;;;10.90;9.90;;;19.00;46.70;;;;;;5115698;28;20820;-40
2022/01/16 09:57:12;;;;;;;11.77;10.67;;;18.80;47.30;;;;;;5115983;28;20219;-41
2022/01/16 09:59:38;;;;;;;10.70;9.73;;;19.30;47.90;;;;;;5116019;28;20711;-39
2022/01/16 10:02:05;;;;;;;11.67;10.57;;;20.40;46.90;;;;;;5117043;28;20488;-40
2022/01/16 10:04:40;;;;;;;12.40;11.33;;;21.50;44.80;;;;;;5116360;28;20507;-40
2022/01/16 10:07:14;;;;;;;11.83;10.77;;;22.30;42.90;;;;;;5116756;28;20509;-41
2022/01/16 10:09:43;;;;;;;12.97;11.77;;;22.50;42.10;;;;;;5116565;28;20453;-40
2022/01/16 10:12:17;;;;;;;11.70;10.60;;;22.40;41.70;;;;;;5116455;28;20473;-40
2022/01/16 10:14:49;;;;;;;12.37;11.27;;;22.30;41.40;;;;;;5116274;28;20448;-40
2022/01/16 10:17:22;;;;;;;13.67;12.37;;;22.10;41.20;;;;;;5116192;28;20417;-40
2022/01/16 10:19:59;;;;;;;14.10;12.90;;;22.10;41.40;;;;;;5116996;28;20790;-39
2022/01/16 10:22:41;;;;;;;14.67;13.27;;;22.90;41.30;;;;;;5119855;28;20425;-40
2022/01/16 10:25:08;;;;;;;16.67;15.17;;;24.10;39.70;;;;;;5118239;28;20455;-40
2022/01/16 10:27:38;;;;;;;16.47;15.07;;;25.20;37.70;;;;;;5118566;28;20473;-41
2022/01/16 10:30:07;;;;;;;16.10;14.60;;;26.20;35.20;;;;;;5119591;28;20420;-41
2022/01/16 10:32:36;;;;;;;17.47;15.83;;;27.00;34.10;;;;;;5119172;28;20911;-42
2022/01/16 10:35:21;;;;;;;15.90;14.50;;;27.70;32.50;;;;;;5120102;28;20524;-40
2022/01/16 10:37:49;;;;;;;17.67;16.00;;;28.20;31.50;;;;;;5120661;28;20543;-40
2022/01/16 10:40:17;;;;;;;17.50;16.10;;;28.50;30.50;;;;;;5119011;28;20486;-41
2022/01/16 10:42:49;;;;;;;16.23;14.93;;;28.60;30.00;;;;;;5119140;28;20863;-41
2022/01/16 10:45:16;;;;;;;19.13;17.47;;;28.70;29.90;;;;;;5118913;28;20440;-44
2022/01/16 10:47:57;;;;;;;19.43;17.80;;;28.90;29.40;;;;;;5119420;28;20421;-41
2022/01/16 10:50:25;;;;;;;20.33;18.53;;;28.80;28.50;;;;;;5101273;28;20432;-42
2022/01/16 10:53:05;;;;;;;17.00;15.40;;;28.50;28.90;;;;;;5118348;28;20681;-44
2022/01/16 10:55:47;;;;;;;16.80;15.40;;;28.60;28.60;;;;;;5119079;28;20491;-41
2022/01/16 10:58:37;;;;;;;17.60;16.20;;;28.60;28.50;;;;;;5101993;28;20829;-41
2022/01/16 11:01:14;;;;;;;19.10;17.40;;;28.70;28.60;;;;;;5117727;28;20456;-42
2022/01/16 11:03:41;;;;;;;19.00;17.43;;;28.70;28.30;;;;;;5119601;28;20467;-39
2022/01/16 11:06:07;;;;;;;19.77;18.10;;;28.80;27.70;;;;;;5099648;28;20501;-39
2022/01/16 11:08:34;;;;;;;16.93;15.53;;;28.90;27.80;;;;;;5116512;28;20692;-39
2022/01/16 11:11:00;;;;;;;19.50;17.90;;;28.70;28.00;;;;;;5116186;28;20442;-41
2022/01/16 11:13:29;;;;;;;19.53;17.80;;;29.00;27.80;;;;;;5115241;27;20514;-41
2022/01/16 11:16:02;;;;;;;18.33;16.83;;;29.20;27.60;;;;;;5104976;27;20261;-41
2022/01/16 11:18:27;;;;;;;18.60;16.97;;;29.70;27.10;;;;;;5111252;27;21079;-40
2022/01/16 11:23:46;;;;;;;21.00;19.30;;;31.60;26.90;;;;;;5127151;27;20216;-41
2022/01/16 11:26:13;;;;;;;19.90;18.30;;;30.30;26.40;;;;;;5127726;27;20901;-42
2022/01/16 11:28:39;;;;;;;17.50;16.10;;;29.20;26.40;;;;;;5102042;28;20431;-41
2022/01/16 11:31:09;;;;;;;16.30;14.97;;;28.00;27.30;;;;;;5083563;28;20412;-41
2022/01/16 11:33:35;;;;;;;18.00;16.40;;;27.50;28.20;;;;;;5100436;28;20274;-40
2022/01/16 11:36:08;;;;;;;17.30;16.00;;;27.80;28.40;;;;;;5099699;28;20811;-41
2022/01/16 11:38:49;;;;;;;17.57;16.00;;;27.90;28.50;;;;;;5081456;28;20211;-41
2022/01/16 11:41:24;;;;;;;19.00;17.40;;;28.10;28.80;;;;;;5098665;28;20519;-42
2022/01/16 11:43:51;;;;;;;20.40;18.70;;;27.90;28.30;;;;;;5098623;28;20408;-40
2022/01/16 11:46:21;;;;;;;22.07;20.27;;;27.50;27.90;;;;;;5083226;28;20428;-41
2022/01/16 11:49:00;;;;;;;20.50;18.70;;;27.10;27.60;;;;;;5077578;28;20865;-39
2022/01/16 11:51:35;;;;;;;21.00;19.10;;;26.90;27.60;;;;;;5078216;28;21184;-42
2022/01/16 11:54:07;;;;;;;20.23;18.53;;;27.10;27.50;;;;;;5076654;28;20403;-40
2022/01/16 11:56:43;;;;;;;20.27;18.43;;;26.60;27.40;;;;;;5076334;28;20420;-40
2022/01/16 11:59:15;;;;;;;20.43;18.53;;;26.10;27.70;;;;;;5076727;28;20404;-40
2022/01/16 12:01:45;;;;;;;21.50;19.70;;;26.20;27.90;;;;;;5078156;28;20748;-41
2022/01/16 12:04:41;;;;;;;20.63;18.97;;;27.10;27.70;;;;;;5077873;28;20435;-41
2022/01/16 12:07:12;;;;;;;21.00;19.13;;;27.20;27.20;;;;;;5077077;28;20449;-41
2022/01/16 12:09:57;;;;;;;20.60;18.70;;;26.60;27.20;;;;;;5078428;28;20501;-41
2022/01/16 12:12:23;;;;;;;22.77;20.80;;;25.20;27.70;;;;;;5078435;28;20429;-42
2022/01/16 12:15:00;;;;;;;21.53;19.60;;;23.60;28.50;;;;;;5078269;28;20421;-42
2022/01/16 12:17:30;;;;;;;19.47;17.77;;;22.10;29.10;;;;;;5059747;28;20175;-40
2022/01/16 12:20:13;;;;;;;19.37;17.67;;;20.70;29.70;;;;;;5076863;28;20430;-41
2022/01/16 12:22:55;;;;;;;19.50;17.60;;;19.50;30.20;;;;;;5077155;28;20475;-40
2022/01/16 12:25:25;;;;;;;17.33;15.63;;;18.10;31.10;;;;;;5077892;28;20504;-40
2022/01/16 12:28:13;;;;;;;17.93;16.13;;;17.10;32.00;;;;;;5091156;28;20471;-41
2022/01/16 12:31:08;;;;;;;18.10;16.30;;;16.10;33.00;;;;;;5080659;28;20433;-39
2022/01/16 12:33:37;;;;;;;20.27;18.07;;;15.30;33.90;;;;;;5082985;28;20435;-41
2022/01/16 12:36:12;;;;;;;18.93;16.93;;;14.70;34.80;;;;;;5095184;28;20412;-40
2022/01/16 12:38:50;;;;;;;19.20;17.27;;;14.10;35.60;;;;;;5094739;28;20433;-39
2022/01/16 12:41:23;;;;;;;19.67;17.57;;;13.50;36.50;;;;;;5092856;28;20450;-41
2022/01/16 12:43:58;;;;;;;19.53;17.53;;;13.10;37.00;;;;;;5075527;28;20463;-39
2022/01/16 12:46:32;;;;;;;20.30;17.67;;;12.70;37.60;;;;;;5075883;28;20422;-40
2022/01/16 12:49:26;;;;;;;21.23;18.30;;;12.40;38.10;;;;;;5095009;28;20414;-40
2022/01/16 12:51:57;;;;;;;21.63;18.20;;;12.20;38.50;;;;;;5093618;28;20415;-40
2022/01/16 12:54:28;;;;;;;21.50;17.53;;;12.00;38.90;;;;;;5097015;28;20419;-39
2022/01/16 12:56:57;;;;;;;18.93;16.40;;;11.70;39.30;;;;;;5062626;28;20436;-39
2022/01/16 12:59:30;;;;;;;17.17;15.03;;;11.60;39.40;;;;;;5097591;28;20883;-39
2022/01/16 13:02:01;;;;;;;14.63;13.07;;;11.50;39.50;;;;;;5115849;28;20554;-41
2022/01/16 13:04:32;;;;;;;13.90;12.40;;;11.20;39.60;;;;;;5116593;28;20651;-40
2022/01/16 13:07:04;;;;;;;13.03;11.20;;;11.00;39.80;;;;;;5117126;28;20804;-41
2022/01/16 13:09:31;;;;;;;13.60;11.03;;;10.90;40.00;;;;;;5114162;28;20435;-41
2022/01/16 13:12:00;;;;;;;12.33;10.63;;;10.90;40.30;;;;;;5114375;28;20427;-40
2022/01/16 13:14:31;;;;;;;11.53;9.67;;;10.70;40.90;;;;;;5116847;28;20527;-40
2022/01/16 13:17:06;;;;;;;10.23;9.13;;;10.60;40.50;;;;;;5114882;28;20421;-41
2022/01/16 13:20:14;;;;;;;8.30;7.50;;;10.40;40.70;;;;;;5115047;28;20451;-39
2022/01/16 13:22:30;;;;;;;9.83;8.40;;;10.40;40.80;;;;;;5112024;28;20472;-41
2022/01/16 13:25:03;;;;;;;9.83;8.80;;;10.50;40.70;;;;;;5097921;28;20406;-39
2022/01/16 13:27:32;;;;;;;11.83;9.80;;;10.50;40.70;;;;;;5098324;28;20473;-39
2022/01/16 13:30:00;;;;;;;9.67;8.67;;;10.50;40.50;;;;;;5114722;28;20544;-39